Portada
METAR-TAF:

METAR-TAF

Aeropuertos :

Salt Point, Luisiana, Estados Unidos

latitud: 29-33-44N, longitud: 091-31-32W, altitud: 0 m

Observación

El informe se hizo hace 51 minutos, a las 17:59 UTC
Viento 9 kt del norte con ráfagas de 20 kt
Temperatura 12°C
Humedad 94%
Presión 1021 hPa

METAR: KP92 201759Z AUTO 35009G20KT 12/11 A3016 RMK AO1 SLP212 P0008 60073 T01170111 10189 20117 50020

Hora: 12:50 (18:50 UTC)


TAF: falta

Observaciones y pronósticos meteorológicos de más de 4000 aeropuertos (mensajes METAR y TAF).

Los puntos amarillos y rojos representan las estaciones disponibles.

Ponga el ratón en el punto deseado para ver el nombre de la estación.

Haga clic para ver las observaciones y los pronósticos meteorológicos.

Para cambiar el mapa : haga clic en los botones verdes con una cruz de color negro para hacer un zoom, en el botón verde con un guión para alejar o en las flechas verdes para mapas adyacentes.


METAR-TAF: